Time;durP1;ratioP1;P1;durP2;ratioP2;P2;SDS_P1;SDS_P2;PMS_P1;PMS_P2;Temp;Humidity;BMP_temperature;BMP_pressure;BME280_temperature;BME280_humidity;BME280_pressure;Samples;Min_cycle;Max_cycle;Signal;HPM_P1;HPM_P2
2023/12/17 00:00:03;;;;;;;2.58;1.60;;;22.70;52.40;;;;;;4982184;28;20408;-69
2023/12/17 00:02:31;;;;;;;3.88;1.75;;;22.70;52.40;;;;;;4981815;28;20038;-69
2023/12/17 00:04:57;;;;;;;3.55;1.88;;;22.70;52.40;;;;;;4982202;28;20023;-69
2023/12/17 00:07:23;;;;;;;2.67;1.63;;;22.70;52.40;;;;;;4980838;28;20133;-69
2023/12/17 00:09:48;;;;;;;3.03;1.83;;;22.70;52.40;;;;;;4981964;28;20477;-69
2023/12/17 00:12:14;;;;;;;2.58;1.40;;;22.70;52.40;;;;;;4983188;28;20038;-69
2023/12/17 00:14:41;;;;;;;2.83;1.20;;;22.70;52.40;;;;;;4997268;28;20056;-69
2023/12/17 00:17:07;;;;;;;2.60;1.27;;;22.70;52.50;;;;;;4983238;28;20428;-69
2023/12/17 00:19:33;;;;;;;3.28;1.80;;;22.70;52.40;;;;;;4996907;28;20103;-69
2023/12/17 00:21:58;;;;;;;2.70;1.50;;;22.70;52.40;;;;;;4981258;28;20113;-69
2023/12/17 00:24:24;;;;;;;2.58;1.48;;;22.70;52.40;;;;;;4982412;28;20035;-69
2023/12/17 00:26:49;;;;;;;2.65;1.40;;;22.70;52.40;;;;;;4981784;28;20471;-69
2023/12/17 00:29:15;;;;;;;2.42;1.50;;;22.60;52.30;;;;;;4980644;28;20041;-67
2023/12/17 00:31:40;;;;;;;2.80;1.70;;;22.60;52.40;;;;;;4983767;28;20491;-67
2023/12/17 00:34:06;;;;;;;2.78;1.60;;;22.60;52.30;;;;;;4982822;28;20023;-67
2023/12/17 00:36:32;;;;;;;2.80;1.50;;;22.60;52.30;;;;;;4983434;28;20030;-66
2023/12/17 00:38:57;;;;;;;2.83;1.58;;;22.60;52.30;;;;;;4978803;28;20027;-68
2023/12/17 00:41:23;;;;;;;1.92;1.23;;;22.60;52.30;;;;;;4980353;28;20031;-68
2023/12/17 00:43:54;;;;;;;2.53;1.40;;;22.60;52.30;;;;;;4979723;28;20483;-67
2023/12/17 00:46:19;;;;;;;2.45;1.40;;;22.50;52.30;;;;;;4981636;28;20089;-67
2023/12/17 00:48:45;;;;;;;2.75;1.60;;;22.50;52.30;;;;;;4979800;28;20027;-69
2023/12/17 00:51:13;;;;;;;2.55;1.42;;;22.50;52.40;;;;;;4983394;28;20033;-69
2023/12/17 00:53:39;;;;;;;2.78;1.60;;;22.40;52.30;;;;;;4982114;28;20551;-69
2023/12/17 00:56:05;;;;;;;2.75;1.48;;;22.40;52.30;;;;;;4980778;28;20106;-68
2023/12/17 00:58:30;;;;;;;3.50;1.60;;;22.40;52.30;;;;;;4979430;28;20046;-69
2023/12/17 01:00:56;;;;;;;2.88;1.40;;;22.40;52.40;;;;;;4983015;28;20340;-69
2023/12/17 01:03:22;;;;;;;2.50;1.40;;;22.40;52.40;;;;;;4982191;28;20043;-69
2023/12/17 01:05:47;;;;;;;2.70;1.50;;;22.30;52.30;;;;;;4982369;28;20105;-69
2023/12/17 01:08:13;;;;;;;4.25;1.80;;;22.40;52.50;;;;;;4980457;28;20483;-69
2023/12/17 01:10:39;;;;;;;2.67;1.48;;;22.30;52.40;;;;;;4981352;28;20107;-69
2023/12/17 01:13:04;;;;;;;2.97;1.63;;;22.30;52.40;;;;;;4978975;28;20049;-69
2023/12/17 01:15:30;;;;;;;2.50;1.50;;;22.30;52.50;;;;;;4979916;28;20034;-69
2023/12/17 01:17:56;;;;;;;2.17;1.30;;;22.30;52.50;;;;;;4980796;28;20146;-68
2023/12/17 01:20:21;;;;;;;3.85;1.60;;;22.20;52.50;;;;;;4979548;28;20092;-69
2023/12/17 01:22:47;;;;;;;3.20;1.67;;;22.20;52.50;;;;;;4980237;28;20038;-69
2023/12/17 01:25:12;;;;;;;3.60;1.73;;;22.20;52.50;;;;;;4979359;28;20490;-68
2023/12/17 01:27:38;;;;;;;2.83;1.55;;;22.20;52.50;;;;;;4981627;28;20387;-68
2023/12/17 01:30:04;;;;;;;2.75;1.50;;;22.10;52.50;;;;;;4978979;28;20031;-69
2023/12/17 01:32:29;;;;;;;2.42;1.38;;;22.10;52.50;;;;;;4978971;28;20026;-68
2023/12/17 01:34:55;;;;;;;2.58;1.45;;;22.20;52.60;;;;;;4981193;28;20037;-68
2023/12/17 01:37:21;;;;;;;2.30;1.48;;;22.10;52.50;;;;;;4978686;28;20038;-69
2023/12/17 01:39:46;;;;;;;2.65;1.50;;;22.10;52.60;;;;;;4978428;28;20505;-69
2023/12/17 01:42:12;;;;;;;2.83;1.50;;;22.10;52.60;;;;;;4979909;28;20110;-69
2023/12/17 01:44:38;;;;;;;2.65;1.60;;;22.10;52.60;;;;;;4978533;28;20035;-69
2023/12/17 01:47:04;;;;;;;2.30;1.60;;;22.00;52.60;;;;;;4979985;28;20022;-69
2023/12/17 01:49:29;;;;;;;3.10;1.77;;;22.00;52.60;;;;;;4981497;28;20049;-69
2023/12/17 01:51:55;;;;;;;2.15;1.35;;;22.00;52.60;;;;;;4979945;28;20368;-69
2023/12/17 01:54:21;;;;;;;2.78;1.52;;;22.00;52.60;;;;;;4981101;28;20393;-69
2023/12/17 01:56:48;;;;;;;3.08;1.67;;;22.00;52.60;;;;;;4981199;28;20030;-69
2023/12/17 01:59:14;;;;;;;4.20;1.65;;;21.90;52.60;;;;;;4978153;28;20026;-69
2023/12/17 02:01:43;;;;;;;2.22;1.40;;;21.90;52.70;;;;;;4979996;28;20026;-69
2023/12/17 02:04:10;;;;;;;2.60;1.42;;;21.90;52.70;;;;;;4980587;28;20566;-69
2023/12/17 02:06:37;;;;;;;3.17;1.70;;;21.90;52.70;;;;;;4979657;28;20070;-69
2023/12/17 02:09:03;;;;;;;2.45;1.30;;;21.90;52.70;;;;;;4977619;28;20026;-69
2023/12/17 02:11:28;;;;;;;3.08;1.58;;;21.90;52.70;;;;;;4979328;28;20030;-69
2023/12/17 02:13:54;;;;;;;3.08;1.52;;;21.80;52.70;;;;;;4995120;28;20030;-69
2023/12/17 02:16:19;;;;;;;2.30;1.50;;;21.80;52.70;;;;;;4979900;28;20035;-69
2023/12/17 02:18:45;;;;;;;2.45;1.58;;;21.80;52.70;;;;;;4978040;28;20030;-69
2023/12/17 02:21:11;;;;;;;2.70;1.50;;;21.80;52.80;;;;;;4995680;28;20046;-69
2023/12/17 02:23:36;;;;;;;2.80;1.60;;;21.70;52.70;;;;;;4980816;28;20100;-69
2023/12/17 02:26:03;;;;;;;3.03;1.52;;;21.70;52.70;;;;;;4979267;28;20081;-69
2023/12/17 02:28:30;;;;;;;3.05;1.50;;;21.70;52.80;;;;;;4976925;28;20051;-69
2023/12/17 02:30:55;;;;;;;2.40;1.40;;;21.70;52.80;;;;;;4980553;28;20030;-69
2023/12/17 02:33:21;;;;;;;2.38;1.42;;;21.70;52.80;;;;;;4977226;28;20489;-69
2023/12/17 02:35:46;;;;;;;2.40;1.50;;;21.70;52.90;;;;;;4979389;28;20030;-69
2023/12/17 02:38:12;;;;;;;2.65;1.40;;;21.70;52.90;;;;;;4983746;28;20126;-69
2023/12/17 02:40:38;;;;;;;2.67;1.65;;;21.60;52.80;;;;;;4985026;28;20041;-69
2023/12/17 02:43:03;;;;;;;3.00;1.60;;;21.60;52.90;;;;;;4983892;28;20073;-69
2023/12/17 02:45:29;;;;;;;2.83;1.65;;;21.60;52.80;;;;;;4983156;28;20037;-69
2023/12/17 02:47:54;;;;;;;2.90;1.60;;;21.60;52.90;;;;;;4980756;28;20109;-69
2023/12/17 02:50:20;;;;;;;2.88;1.70;;;21.60;52.90;;;;;;4983017;28;20019;-68
2023/12/17 02:52:45;;;;;;;2.30;1.48;;;21.60;53.00;;;;;;4983308;28;20450;-68
2023/12/17 02:55:11;;;;;;;2.00;1.30;;;21.60;53.00;;;;;;4980997;28;20030;-68
2023/12/17 02:57:37;;;;;;;2.25;1.40;;;21.50;53.00;;;;;;4982587;28;20038;-69
2023/12/17 03:00:03;;;;;;;2.45;1.30;;;21.50;53.00;;;;;;4983555;28;20344;-69
2023/12/17 03:02:29;;;;;;;2.47;1.50;;;21.50;53.00;;;;;;4984482;28;20030;-69
2023/12/17 03:04:54;;;;;;;2.38;1.42;;;21.50;53.00;;;;;;4982842;28;20040;-68
2023/12/17 03:07:20;;;;;;;2.25;1.42;;;21.50;53.00;;;;;;4997402;28;20031;-69
2023/12/17 03:09:47;;;;;;;2.25;1.35;;;21.50;53.00;;;;;;4997163;28;20137;-69
2023/12/17 03:12:13;;;;;;;2.92;1.70;;;21.50;53.10;;;;;;4980798;28;20023;-69
2023/12/17 03:14:40;;;;;;;2.40;1.55;;;21.50;53.10;;;;;;4979227;28;20046;-69
2023/12/17 03:17:05;;;;;;;2.50;1.60;;;21.40;53.10;;;;;;4983147;28;20114;-69
2023/12/17 03:19:31;;;;;;;2.38;1.50;;;21.40;53.10;;;;;;4982528;28;20105;-69
2023/12/17 03:21:57;;;;;;;2.85;1.40;;;21.40;53.10;;;;;;4981670;28;20023;-69
2023/12/17 03:24:22;;;;;;;2.33;1.40;;;21.40;53.10;;;;;;4981534;28;20019;-69
2023/12/17 03:26:48;;;;;;;2.10;1.40;;;21.40;53.10;;;;;;4983628;28;20031;-69
2023/12/17 03:29:14;;;;;;;2.08;1.30;;;21.40;53.20;;;;;;4980390;28;20492;-69
2023/12/17 03:31:39;;;;;;;2.20;1.40;;;21.30;53.20;;;;;;4998060;28;20023;-69
2023/12/17 03:34:05;;;;;;;2.33;1.38;;;21.30;53.20;;;;;;4982995;28;20038;-69
2023/12/17 03:36:30;;;;;;;2.17;1.38;;;21.30;53.20;;;;;;4981634;28;20085;-69
2023/12/17 03:38:56;;;;;;;1.92;1.30;;;21.30;53.20;;;;;;4983584;28;20379;-69
2023/12/17 03:41:23;;;;;;;1.88;1.23;;;21.30;53.20;;;;;;4984189;28;20034;-69
2023/12/17 03:43:54;;;;;;;1.80;1.20;;;21.30;53.20;;;;;;4980316;28;20054;-69
2023/12/17 03:46:20;;;;;;;2.20;1.50;;;21.30;53.20;;;;;;4997683;28;20034;-69
2023/12/17 03:48:46;;;;;;;2.13;1.38;;;21.30;53.20;;;;;;4982858;28;20035;-68
2023/12/17 03:51:12;;;;;;;2.22;1.58;;;21.30;53.30;;;;;;4981452;28;20418;-69
2023/12/17 03:53:38;;;;;;;2.03;1.20;;;21.20;53.30;;;;;;4980940;28;20027;-69
2023/12/17 03:56:10;;;;;;;2.22;1.30;;;21.20;53.30;;;;;;4997324;28;20564;-69
2023/12/17 03:58:36;;;;;;;2.38;1.42;;;21.20;53.30;;;;;;4982341;28;20541;-68
2023/12/17 04:01:02;;;;;;;2.15;1.27;;;21.20;53.30;;;;;;4994941;28;20030;-68
2023/12/17 04:03:28;;;;;;;1.73;1.20;;;21.20;53.30;;;;;;4983538;28;20549;-69
2023/12/17 04:05:54;;;;;;;1.70;1.00;;;21.20;53.30;;;;;;4981302;28;20039;-69
2023/12/17 04:08:20;;;;;;;2.33;1.40;;;21.20;53.40;;;;;;4982086;28;20034;-69
2023/12/17 04:10:45;;;;;;;2.42;1.40;;;21.10;53.30;;;;;;4983556;28;20789;-68
2023/12/17 04:13:11;;;;;;;1.73;1.10;;;21.10;53.30;;;;;;4982443;28;20035;-69
2023/12/17 04:15:37;;;;;;;2.20;1.20;;;21.10;53.30;;;;;;4983587;28;20046;-68
2023/12/17 04:18:03;;;;;;;2.05;1.30;;;21.10;53.40;;;;;;4996795;28;20149;-69
2023/12/17 04:20:28;;;;;;;1.83;1.30;;;21.10;53.40;;;;;;4982871;28;20154;-69
2023/12/17 04:22:54;;;;;;;1.95;1.20;;;21.10;53.40;;;;;;4995676;28;20030;-69
2023/12/17 04:25:19;;;;;;;1.90;1.20;;;21.10;53.40;;;;;;4980084;28;20509;-69
2023/12/17 04:27:45;;;;;;;2.17;1.27;;;21.10;53.40;;;;;;4997168;28;20034;-69
2023/12/17 04:30:11;;;;;;;1.83;1.02;;;21.10;53.40;;;;;;4982367;28;20030;-69
2023/12/17 04:32:37;;;;;;;1.70;1.20;;;21.10;53.50;;;;;;4982047;28;20463;-69
2023/12/17 04:35:03;;;;;;;1.92;1.30;;;21.00;53.40;;;;;;4979936;28;20033;-69
2023/12/17 04:37:29;;;;;;;1.60;1.08;;;21.00;53.50;;;;;;4980947;28;20372;-69
2023/12/17 04:39:55;;;;;;;1.35;1.05;;;21.00;54.00;;;;;;4981750;28;20505;-69
2023/12/17 04:42:21;;;;;;;1.60;1.10;;;21.00;53.50;;;;;;4979020;28;20034;-69
2023/12/17 04:44:46;;;;;;;2.10;1.20;;;21.00;53.50;;;;;;4979818;28;20034;-69
2023/12/17 04:47:12;;;;;;;1.88;1.20;;;21.00;53.50;;;;;;4980464;28;20390;-69
2023/12/17 04:49:38;;;;;;;1.88;1.20;;;21.00;53.50;;;;;;4978793;28;20027;-69
2023/12/17 04:52:04;;;;;;;2.10;1.20;;;21.00;53.60;;;;;;4981869;28;20034;-69
2023/12/17 04:54:30;;;;;;;1.85;1.17;;;21.00;53.60;;;;;;4981893;28;20038;-69
2023/12/17 04:56:55;;;;;;;1.70;1.20;;;20.90;53.50;;;;;;4981296;28;20394;-69
2023/12/17 04:59:21;;;;;;;1.88;1.20;;;20.90;53.60;;;;;;4981204;28;20038;-68
2023/12/17 05:01:47;;;;;;;1.70;1.20;;;20.90;53.60;;;;;;4991911;28;20030;-69
2023/12/17 05:04:15;;;;;;;1.95;1.30;;;20.90;53.60;;;;;;4980042;28;20069;-69
2023/12/17 05:06:41;;;;;;;1.52;1.17;;;20.90;53.70;;;;;;4980364;28;20110;-69
2023/12/17 05:09:08;;;;;;;1.70;1.13;;;20.90;53.70;;;;;;4984694;28;20157;-69
2023/12/17 05:11:34;;;;;;;1.55;1.00;;;20.90;53.70;;;;;;4979564;28;20497;-67
2023/12/17 05:14:00;;;;;;;1.40;1.00;;;20.80;53.70;;;;;;4977407;28;20030;-67
2023/12/17 05:16:26;;;;;;;2.00;1.20;;;20.90;53.70;;;;;;4978884;28;20479;-67
2023/12/17 05:18:51;;;;;;;1.98;1.38;;;20.90;53.70;;;;;;4996959;28;20030;-67
2023/12/17 05:21:17;;;;;;;1.42;1.10;;;20.80;53.70;;;;;;4980342;28;20105;-66
2023/12/17 05:23:43;;;;;;;2.25;1.20;;;20.80;53.70;;;;;;4980705;28;20031;-68
2023/12/17 05:26:08;;;;;;;1.73;1.10;;;20.80;53.70;;;;;;4980790;28;20042;-66
2023/12/17 05:28:34;;;;;;;1.42;1.00;;;20.80;53.80;;;;;;4980737;28;20058;-67
2023/12/17 05:31:00;;;;;;;2.50;1.48;;;20.80;53.80;;;;;;4978965;28;20034;-69
2023/12/17 05:33:26;;;;;;;1.55;1.00;;;20.80;53.90;;;;;;4978807;28;20022;-68
2023/12/17 05:35:51;;;;;;;1.63;1.10;;;20.80;53.80;;;;;;4980414;28;20018;-68
2023/12/17 05:38:18;;;;;;;1.67;1.15;;;20.80;53.90;;;;;;4979878;28;20484;-69
2023/12/17 05:40:44;;;;;;;1.90;1.10;;;20.80;53.90;;;;;;4978222;28;20399;-69
2023/12/17 05:43:09;;;;;;;1.33;1.00;;;20.80;53.90;;;;;;4980285;28;20032;-69
2023/12/17 05:45:35;;;;;;;1.65;1.10;;;20.70;54.40;;;;;;4980893;28;20031;-69
2023/12/17 05:48:00;;;;;;;1.35;1.00;;;20.70;53.90;;;;;;4980533;28;20391;-69
2023/12/17 05:50:26;;;;;;;1.20;0.95;;;20.70;53.90;;;;;;4978579;28;20033;-69
2023/12/17 05:52:52;;;;;;;1.60;1.00;;;20.70;53.90;;;;;;4981428;28;20078;-69
2023/12/17 05:55:19;;;;;;;1.30;0.98;;;20.70;54.00;;;;;;4980370;28;20035;-69
2023/12/17 05:57:49;;;;;;;2.00;1.05;;;20.70;54.00;;;;;;4980181;28;20113;-68
2023/12/17 06:00:15;;;;;;;1.55;1.00;;;20.70;54.00;;;;;;4978476;28;20093;-69
2023/12/17 06:02:41;;;;;;;3.05;1.20;;;20.70;54.00;;;;;;4980348;28;20391;-69
2023/12/17 06:05:07;;;;;;;1.67;1.20;;;20.60;54.00;;;;;;4995409;28;20031;-69
2023/12/17 06:07:33;;;;;;;1.55;1.10;;;20.60;54.00;;;;;;4978671;28;20386;-69
2023/12/17 06:09:59;;;;;;;1.90;1.10;;;20.60;54.00;;;;;;4980274;28;20037;-69
2023/12/17 06:12:24;;;;;;;1.77;1.13;;;20.70;54.10;;;;;;4978159;28;20034;-69
2023/12/17 06:14:50;;;;;;;1.55;1.00;;;20.60;54.00;;;;;;4978799;28;20498;-68
2023/12/17 06:17:15;;;;;;;1.55;1.05;;;20.60;54.00;;;;;;4978566;28;20015;-68
2023/12/17 06:19:41;;;;;;;1.40;1.10;;;20.60;54.60;;;;;;4980434;28;20465;-68
2023/12/17 06:22:11;;;;;;;1.60;0.98;;;20.60;54.10;;;;;;4977957;28;20030;-68
2023/12/17 06:24:37;;;;;;;1.63;1.00;;;20.60;54.10;;;;;;4980147;28;20051;-67
2023/12/17 06:27:03;;;;;;;1.52;1.10;;;20.60;54.10;;;;;;4976815;28;20061;-67
2023/12/17 06:29:29;;;;;;;1.77;1.20;;;20.60;54.10;;;;;;4979259;28;20035;-67
2023/12/17 06:31:54;;;;;;;1.73;0.98;;;20.60;54.10;;;;;;4979338;28;20442;-66
2023/12/17 06:34:20;;;;;;;1.70;1.08;;;20.60;54.20;;;;;;4979132;28;20030;-67
2023/12/17 06:36:45;;;;;;;1.45;0.98;;;20.60;54.20;;;;;;4979582;28;20064;-66
2023/12/17 06:39:11;;;;;;;1.70;1.20;;;20.60;54.20;;;;;;4979503;28;20038;-67
2023/12/17 06:41:46;;;;;;;1.45;1.10;;;20.60;54.20;;;;;;4980826;28;20050;-67
2023/12/17 06:44:12;;;;;;;1.30;1.08;;;20.50;54.20;;;;;;4979366;28;20440;-67
2023/12/17 06:46:37;;;;;;;1.85;1.20;;;20.50;54.20;;;;;;4994965;28;20049;-66
2023/12/17 06:49:03;;;;;;;1.33;0.93;;;20.50;54.20;;;;;;4980188;28;20151;-67
2023/12/17 06:51:28;;;;;;;1.58;1.10;;;20.50;54.20;;;;;;4980749;28;20025;-68
2023/12/17 06:53:54;;;;;;;1.80;1.10;;;20.50;54.20;;;;;;4980086;28;20763;-67
2023/12/17 06:56:20;;;;;;;1.50;1.10;;;20.50;54.20;;;;;;4978685;28;20038;-68
2023/12/17 06:58:45;;;;;;;1.60;1.10;;;20.50;54.20;;;;;;4979754;28;20077;-67
2023/12/17 07:01:11;;;;;;;1.48;1.08;;;20.50;54.20;;;;;;4980856;28;20022;-66
2023/12/17 07:03:37;;;;;;;1.50;1.10;;;20.50;54.20;;;;;;4979823;28;20038;-67
2023/12/17 07:06:03;;;;;;;1.48;1.20;;;20.50;54.20;;;;;;4993476;28;20080;-67
2023/12/17 07:08:28;;;;;;;1.23;0.98;;;20.50;54.20;;;;;;4993933;28;20038;-67
2023/12/17 07:10:54;;;;;;;1.48;0.90;;;20.50;54.20;;;;;;4977771;28;20026;-66
2023/12/17 07:13:20;;;;;;;1.60;1.10;;;20.40;54.20;;;;;;4977969;28;20042;-67
2023/12/17 07:15:45;;;;;;;1.50;1.00;;;20.50;54.30;;;;;;4979098;28;20035;-69
2023/12/17 07:18:11;;;;;;;1.77;1.05;;;20.40;54.20;;;;;;4979246;28;20106;-66
2023/12/17 07:20:37;;;;;;;1.88;1.27;;;20.40;54.20;;;;;;4978582;28;20456;-67
2023/12/17 07:23:02;;;;;;;1.67;1.10;;;20.40;54.20;;;;;;4981859;28;20027;-67
2023/12/17 07:25:28;;;;;;;1.75;1.08;;;20.40;54.30;;;;;;4985206;28;20443;-66
2023/12/17 07:27:54;;;;;;;1.50;1.10;;;20.40;54.30;;;;;;4981678;28;20092;-66
2023/12/17 07:30:20;;;;;;;1.85;1.25;;;20.40;54.30;;;;;;4982491;28;20034;-70
2023/12/17 07:32:47;;;;;;;2.13;1.20;;;20.40;54.20;;;;;;4982218;28;20675;-70
2023/12/17 07:35:14;;;;;;;1.30;0.98;;;20.40;54.30;;;;;;4982251;28;20113;-69
2023/12/17 07:37:40;;;;;;;1.05;0.85;;;20.40;54.30;;;;;;4981620;28;20041;-69
2023/12/17 07:40:06;;;;;;;1.50;1.00;;;20.40;54.30;;;;;;4995857;28;20038;-70
2023/12/17 07:42:32;;;;;;;1.73;1.20;;;20.40;54.30;;;;;;4996460;28;20042;-70
2023/12/17 07:44:58;;;;;;;1.60;1.00;;;20.40;54.80;;;;;;4981902;28;20475;-69
2023/12/17 07:47:23;;;;;;;1.50;1.10;;;20.40;54.30;;;;;;4980571;28;20039;-70
2023/12/17 07:49:49;;;;;;;1.27;1.05;;;20.40;54.30;;;;;;4981993;28;20386;-67
2023/12/17 07:52:15;;;;;;;1.52;1.20;;;20.40;54.30;;;;;;4983309;28;20027;-67
2023/12/17 07:54:40;;;;;;;1.50;1.10;;;20.30;54.30;;;;;;4982025;28;20426;-67
2023/12/17 07:57:08;;;;;;;1.60;1.10;;;20.40;54.40;;;;;;4980150;28;20394;-67
2023/12/17 07:59:33;;;;;;;1.50;1.10;;;20.30;54.30;;;;;;4982388;28;20030;-68
2023/12/17 08:01:59;;;;;;;1.90;1.10;;;20.30;54.30;;;;;;4981222;28;20029;-67
2023/12/17 08:04:25;;;;;;;1.80;1.20;;;20.30;54.30;;;;;;4980906;28;20126;-68
2023/12/17 08:06:50;;;;;;;1.65;1.20;;;20.30;54.30;;;;;;4982568;28;20031;-67
2023/12/17 08:09:16;;;;;;;1.48;1.10;;;20.30;54.40;;;;;;4979879;28;20471;-67
2023/12/17 08:11:43;;;;;;;1.58;1.10;;;20.30;54.40;;;;;;4982054;28;20026;-66
2023/12/17 08:14:09;;;;;;;1.58;1.17;;;20.30;54.40;;;;;;4983634;28;20026;-66
2023/12/17 08:16:35;;;;;;;1.60;1.10;;;20.30;54.40;;;;;;4981195;28;20035;-67
2023/12/17 08:19:01;;;;;;;1.30;1.10;;;20.30;54.40;;;;;;4982371;28;20027;-67
2023/12/17 08:21:26;;;;;;;1.58;1.10;;;20.30;54.40;;;;;;4981378;28;20478;-68
2023/12/17 08:23:52;;;;;;;1.30;1.00;;;20.30;54.40;;;;;;4979384;28;20059;-67
2023/12/17 08:26:17;;;;;;;1.83;1.10;;;20.30;54.40;;;;;;4982819;28;20469;-67
2023/12/17 08:28:43;;;;;;;1.75;1.20;;;20.30;54.40;;;;;;4996739;28;20030;-67
2023/12/17 08:31:09;;;;;;;1.77;1.17;;;20.20;54.40;;;;;;4979886;28;20065;-67
2023/12/17 08:33:36;;;;;;;1.63;1.10;;;20.30;54.40;;;;;;4981010;28;20312;-66
2023/12/17 08:36:02;;;;;;;1.30;1.00;;;20.30;54.50;;;;;;4978926;28;20031;-66
2023/12/17 08:38:28;;;;;;;1.67;1.08;;;20.30;54.50;;;;;;4981795;28;20109;-66
2023/12/17 08:40:54;;;;;;;1.65;1.20;;;20.30;54.50;;;;;;4983270;28;20107;-68
2023/12/17 08:43:20;;;;;;;1.50;1.08;;;20.30;54.50;;;;;;4980904;28;20542;-68
2023/12/17 08:45:46;;;;;;;1.88;1.00;;;20.20;54.50;;;;;;4977989;28;20125;-68
2023/12/17 08:48:11;;;;;;;1.60;1.08;;;20.20;54.40;;;;;;4979319;28;20447;-67
2023/12/17 08:50:37;;;;;;;1.40;1.00;;;20.20;54.50;;;;;;4980819;28;20147;-68
2023/12/17 08:53:02;;;;;;;1.35;1.15;;;20.20;54.50;;;;;;4980293;28;20398;-68
2023/12/17 08:55:28;;;;;;;1.45;1.00;;;20.20;54.50;;;;;;4981382;28;20030;-68
2023/12/17 08:57:54;;;;;;;1.92;1.30;;;20.20;54.50;;;;;;4981687;28;20038;-67
2023/12/17 09:00:19;;;;;;;1.10;1.00;;;20.20;54.50;;;;;;4982126;28;20026;-68
2023/12/17 09:02:45;;;;;;;1.20;0.98;;;20.20;54.50;;;;;;4978859;28;20035;-68
2023/12/17 09:05:11;;;;;;;1.73;1.10;;;20.20;54.50;;;;;;4978747;28;20034;-68
2023/12/17 09:07:36;;;;;;;1.42;1.10;;;20.20;54.50;;;;;;4977689;28;20030;-68
2023/12/17 09:10:02;;;;;;;1.30;0.90;;;20.20;54.50;;;;;;4983226;28;20042;-67
2023/12/17 09:12:28;;;;;;;1.30;1.00;;;20.20;54.60;;;;;;4981730;28;20029;-68
2023/12/17 09:14:54;;;;;;;1.35;1.08;;;20.20;54.60;;;;;;4979503;28;20396;-69
2023/12/17 09:17:20;;;;;;;1.58;1.00;;;20.20;54.60;;;;;;4979941;28;20066;-69
2023/12/17 09:19:47;;;;;;;1.35;1.02;;;20.20;54.60;;;;;;4981252;28;20022;-69
2023/12/17 09:22:13;;;;;;;1.52;1.10;;;20.20;54.60;;;;;;4980496;28;20042;-69
2023/12/17 09:24:40;;;;;;;1.30;1.02;;;20.20;55.10;;;;;;4980114;28;20467;-69
2023/12/17 09:27:05;;;;;;;1.63;1.10;;;20.10;54.50;;;;;;4981604;28;20093;-69
2023/12/17 09:29:32;;;;;;;1.13;0.90;;;20.10;54.50;;;;;;4980592;28;20023;-68
2023/12/17 09:31:58;;;;;;;1.60;1.10;;;20.10;54.60;;;;;;4979395;28;20065;-69
2023/12/17 09:34:23;;;;;;;1.35;1.00;;;20.10;54.60;;;;;;4978977;28;20026;-69
2023/12/17 09:36:49;;;;;;;1.10;1.00;;;20.10;54.60;;;;;;4979725;28;20037;-69
2023/12/17 09:39:15;;;;;;;1.33;1.10;;;20.10;54.60;;;;;;4981060;28;20091;-69
2023/12/17 09:41:43;;;;;;;1.55;1.10;;;20.10;55.20;;;;;;4981401;28;20442;-68
2023/12/17 09:44:09;;;;;;;1.85;1.15;;;20.10;54.70;;;;;;4981011;28;20042;-68
2023/12/17 09:46:35;;;;;;;1.60;1.00;;;20.10;55.20;;;;;;4980622;28;20034;-69
2023/12/17 09:49:01;;;;;;;1.55;1.10;;;20.10;54.70;;;;;;4979480;28;20475;-68
2023/12/17 09:51:28;;;;;;;1.88;1.27;;;20.10;54.70;;;;;;4980790;28;20037;-67
2023/12/17 09:53:57;;;;;;;1.42;1.20;;;20.10;54.70;;;;;;4993661;28;20027;-67
2023/12/17 09:56:23;;;;;;;1.50;1.10;;;20.10;54.80;;;;;;4980150;28;20037;-68
2023/12/17 09:58:49;;;;;;;1.35;1.02;;;20.10;54.80;;;;;;4995962;28;20038;-68
2023/12/17 10:01:15;;;;;;;1.80;1.13;;;20.10;54.80;;;;;;4994910;28;20462;-68
2023/12/17 10:03:40;;;;;;;1.70;1.10;;;20.10;54.80;;;;;;4979305;28;20049;-68
2023/12/17 10:06:06;;;;;;;1.75;1.10;;;20.10;54.80;;;;;;4980014;28;20502;-67
2023/12/17 10:08:33;;;;;;;1.60;1.30;;;20.10;54.90;;;;;;4980093;28;20501;-68
2023/12/17 10:10:59;;;;;;;1.70;1.25;;;20.10;54.90;;;;;;4979027;28;20018;-67
2023/12/17 10:13:25;;;;;;;1.70;1.20;;;20.10;54.90;;;;;;4981879;28;20752;-67
2023/12/17 10:15:55;;;;;;;1.48;1.08;;;20.00;54.80;;;;;;4975554;28;20601;-68
2023/12/17 10:18:22;;;;;;;1.98;1.33;;;20.00;54.90;;;;;;4981120;28;20022;-67
2023/12/17 10:20:49;;;;;;;2.00;1.40;;;20.00;54.90;;;;;;4978510;28;20027;-67
2023/12/17 10:23:15;;;;;;;2.45;1.20;;;20.00;54.90;;;;;;4980722;28;20054;-67
2023/12/17 10:25:42;;;;;;;1.80;1.20;;;20.00;54.90;;;;;;4979837;28;20467;-67
2023/12/17 10:28:12;;;;;;;1.48;1.10;;;20.00;55.00;;;;;;4980114;28;20100;-66
2023/12/17 10:30:39;;;;;;;1.67;1.17;;;20.00;55.00;;;;;;4978344;28;20326;-66
2023/12/17 10:33:05;;;;;;;1.60;1.20;;;20.00;55.50;;;;;;4980757;28;20125;-67
2023/12/17 10:35:32;;;;;;;1.90;1.30;;;20.00;55.00;;;;;;4976640;28;20487;-67
2023/12/17 10:38:03;;;;;;;1.70;1.20;;;20.00;55.00;;;;;;4979754;28;20831;-67
2023/12/17 10:40:29;;;;;;;2.00;1.20;;;20.00;55.00;;;;;;4979685;28;20387;-67
2023/12/17 10:42:57;;;;;;;1.50;1.10;;;20.00;55.00;;;;;;4980027;28;20050;-66
2023/12/17 10:45:24;;;;;;;1.33;1.10;;;20.00;55.10;;;;;;4978743;28;20077;-67
2023/12/17 10:47:56;;;;;;;1.50;1.00;;;20.00;55.10;;;;;;4992989;28;20130;-67
2023/12/17 10:50:23;;;;;;;1.63;1.20;;;20.00;55.10;;;;;;4978297;28;20051;-67
2023/12/17 10:52:49;;;;;;;1.67;1.20;;;20.00;55.60;;;;;;4978800;28;20032;-66
2023/12/17 10:55:16;;;;;;;1.58;1.20;;;20.00;55.10;;;;;;4978157;28;20038;-66
2023/12/17 10:57:54;;;;;;;1.48;1.08;;;20.00;55.20;;;;;;4979693;28;20057;-65
2023/12/17 11:00:24;;;;;;;2.40;1.65;;;20.10;56.20;;;;;;4983159;28;20031;-66
2023/12/17 11:02:54;;;;;;;2.30;1.70;;;20.20;56.30;;;;;;4981318;28;20034;-67
2023/12/17 11:05:19;;;;;;;1.30;1.10;;;20.40;56.20;;;;;;4983464;28;20061;-67
2023/12/17 11:07:45;;;;;;;2.28;1.45;;;20.50;56.10;;;;;;4980627;28;20113;-67
2023/12/17 11:10:11;;;;;;;2.08;1.30;;;20.70;55.70;;;;;;4981055;28;20486;-67
2023/12/17 11:12:42;;;;;;;2.38;1.60;;;20.90;55.40;;;;;;4984992;28;20121;-67
2023/12/17 11:15:08;;;;;;;2.20;1.50;;;21.10;55.10;;;;;;4982042;28;20089;-68
2023/12/17 11:17:33;;;;;;;2.35;1.42;;;21.20;54.90;;;;;;4980826;28;20058;-67
2023/12/17 11:20:04;;;;;;;2.20;1.50;;;21.40;54.70;;;;;;4996830;28;20131;-67
2023/12/17 11:22:35;;;;;;;2.38;1.60;;;21.60;54.50;;;;;;4982753;28;20034;-68
2023/12/17 11:25:00;;;;;;;3.47;1.60;;;21.70;54.10;;;;;;4981813;28;20562;-66
2023/12/17 11:27:26;;;;;;;2.42;1.90;;;21.90;53.60;;;;;;4982340;28;20050;-69
2023/12/17 11:29:54;;;;;;;3.10;2.08;;;21.90;53.00;;;;;;4983291;28;20491;-68
2023/12/17 11:32:21;;;;;;;2.47;1.80;;;21.90;53.00;;;;;;4983844;28;20128;-70
2023/12/17 11:34:49;;;;;;;2.45;1.90;;;21.90;52.90;;;;;;4981410;28;20027;-70
2023/12/17 11:37:21;;;;;;;2.88;2.00;;;22.00;53.00;;;;;;4981592;28;20603;-70
2023/12/17 11:39:48;;;;;;;3.13;2.10;;;22.00;52.90;;;;;;4985960;28;20030;-70
2023/12/17 11:42:18;;;;;;;4.35;2.50;;;22.10;52.90;;;;;;4982490;28;20023;-70
2023/12/17 11:44:48;;;;;;;3.15;1.92;;;22.10;52.90;;;;;;4982882;28;20046;-68
2023/12/17 11:47:15;;;;;;;2.83;2.03;;;22.20;52.90;;;;;;4981580;28;20394;-70
2023/12/17 11:49:42;;;;;;;2.90;2.10;;;22.20;52.70;;;;;;4983586;28;20116;-68
2023/12/17 11:52:16;;;;;;;2.70;1.95;;;22.30;52.60;;;;;;4982843;28;20038;-69
2023/12/17 11:54:42;;;;;;;2.60;2.08;;;22.40;52.20;;;;;;4981940;28;20073;-69
2023/12/17 11:57:27;;;;;;;3.50;2.30;;;22.40;52.00;;;;;;4980726;28;20076;-70
2023/12/17 11:59:53;;;;;;;3.15;2.25;;;22.40;52.10;;;;;;4981668;28;20045;-70
2023/12/17 12:02:21;;;;;;;3.10;2.15;;;22.40;52.10;;;;;;4981195;28;20605;-69
2023/12/17 12:04:47;;;;;;;3.22;2.03;;;22.40;52.20;;;;;;4981727;28;20113;-70
2023/12/17 12:07:18;;;;;;;3.35;2.20;;;22.40;52.10;;;;;;4979444;28;20578;-69
2023/12/17 12:09:48;;;;;;;2.85;2.05;;;22.40;52.10;;;;;;4983169;28;20022;-69
2023/12/17 12:12:21;;;;;;;2.80;2.05;;;22.40;52.20;;;;;;4984493;28;20063;-70
2023/12/17 12:14:49;;;;;;;3.90;2.10;;;22.40;52.20;;;;;;4984229;28;20029;-70
2023/12/17 12:17:40;;;;;;;3.40;2.20;;;22.40;52.20;;;;;;4981957;28;20026;-69
2023/12/17 12:20:10;;;;;;;2.97;2.17;;;22.40;52.20;;;;;;4981035;28;20034;-68
2023/12/17 12:22:41;;;;;;;3.72;2.13;;;22.40;52.20;;;;;;4979577;28;20545;-68
2023/12/17 12:25:07;;;;;;;5.20;2.20;;;22.40;52.20;;;;;;4982535;28;20053;-70
2023/12/17 12:27:33;;;;;;;2.83;2.20;;;22.40;52.20;;;;;;4982347;28;20498;-70
2023/12/17 12:29:59;;;;;;;3.22;2.40;;;22.40;52.10;;;;;;4981290;28;20023;-69
2023/12/17 12:32:31;;;;;;;2.90;2.00;;;22.40;52.20;;;;;;4980984;28;20030;-70
2023/12/17 12:34:57;;;;;;;4.60;2.30;;;22.40;52.20;;;;;;4980537;28;20129;-69
2023/12/17 12:37:37;;;;;;;3.28;2.22;;;22.40;52.20;;;;;;4980757;28;20022;-70
2023/12/17 12:40:05;;;;;;;4.45;2.70;;;22.40;52.20;;;;;;4982751;28;21004;-70
2023/12/17 12:42:31;;;;;;;5.53;2.88;;;22.40;52.20;;;;;;4982931;28;20073;-70